createdAt,value
2019-05-22T00:00:40.680Z,4.47
2019-05-22T00:03:13.225Z,4.17
2019-05-22T00:05:43.954Z,6.10
2019-05-22T00:08:12.802Z,3.93
2019-05-22T00:10:43.301Z,3.30
2019-05-22T00:13:15.069Z,2.93
2019-05-22T00:15:46.310Z,2.80
2019-05-22T00:18:16.036Z,2.40
2019-05-22T00:20:45.058Z,2.47
2019-05-22T00:23:15.288Z,2.57
2019-05-22T00:25:46.872Z,2.70
2019-05-22T00:28:16.969Z,2.53
2019-05-22T00:30:49.314Z,2.50
2019-05-22T00:33:18.258Z,2.50
2019-05-22T00:35:47.839Z,2.73
2019-05-22T00:38:18.320Z,2.80
2019-05-22T00:40:51.201Z,3.17
2019-05-22T00:43:29.879Z,3.20
2019-05-22T00:45:58.901Z,2.97
2019-05-22T00:48:30.562Z,2.77
2019-05-22T00:51:13.936Z,2.57
2019-05-22T00:53:55.717Z,2.50
2019-05-22T00:56:36.923Z,2.40
2019-05-22T00:59:17.371Z,2.63
2019-05-22T01:01:49.991Z,2.70
2019-05-22T01:04:22.616Z,2.40
2019-05-22T01:06:54.116Z,2.50
2019-05-22T01:09:34.367Z,2.60
2019-05-22T01:12:05.507Z,3.07
2019-05-22T01:14:43.019Z,2.63
2019-05-22T01:17:07.401Z,2.70
2019-05-22T01:19:38.301Z,3.10
2019-05-22T01:22:09.301Z,3.00
2019-05-22T01:24:45.156Z,3.00
2019-05-22T01:27:15.525Z,2.83
2019-05-22T01:29:46.383Z,2.90
2019-05-22T01:32:22.917Z,3.00
2019-05-22T01:34:53.691Z,3.97
2019-05-22T01:37:28.662Z,3.80
2019-05-22T01:40:04.709Z,3.90
2019-05-22T01:42:42.224Z,4.60
2019-05-22T01:45:16.194Z,4.00
2019-05-22T01:48:00.416Z,4.17
2019-05-22T01:50:51.682Z,4.17
2019-05-22T01:53:29.823Z,5.27
2019-05-22T01:56:07.879Z,4.90
2019-05-22T01:58:45.366Z,4.13
2019-05-22T02:01:24.224Z,4.43
2019-05-22T02:03:56.326Z,4.50
2019-05-22T02:06:26.726Z,4.23
2019-05-22T02:09:02.594Z,4.00
2019-05-22T02:11:33.306Z,3.80
2019-05-22T02:14:09.824Z,3.60
2019-05-22T02:16:55.512Z,4.07
2019-05-22T02:19:14.200Z,3.63
2019-05-22T02:21:44.613Z,4.30
2019-05-22T02:24:15.712Z,4.07
2019-05-22T02:26:45.533Z,4.23
2019-05-22T02:29:16.666Z,4.60
2019-05-22T02:31:47.108Z,4.40
2019-05-22T02:34:16.962Z,3.87
2019-05-22T02:36:47.202Z,4.17
2019-05-22T02:39:35.193Z,4.50
2019-05-22T02:42:12.283Z,3.80
2019-05-22T02:44:42.807Z,3.53
2019-05-22T02:47:19.963Z,3.60
2019-05-22T02:49:48.782Z,3.17
2019-05-22T02:52:18.084Z,3.80
2019-05-22T02:54:47.959Z,3.50
2019-05-22T02:57:18.060Z,4.10
2019-05-22T02:59:46.944Z,3.60
2019-05-22T03:02:16.700Z,3.30
2019-05-22T03:04:58.969Z,3.50
2019-05-22T03:07:30.271Z,3.73
2019-05-22T03:10:01.885Z,3.23
2019-05-22T03:12:40.881Z,3.10
2019-05-22T03:15:14.620Z,2.67
2019-05-22T03:17:47.273Z,3.03
2019-05-22T03:20:23.369Z,3.75
2019-05-22T03:23:06.626Z,3.07
2019-05-22T03:25:36.498Z,3.60
2019-05-22T03:28:08.087Z,3.70
2019-05-22T03:30:40.846Z,3.30
2019-05-22T03:33:10.076Z,3.53
2019-05-22T03:35:46.804Z,3.53
2019-05-22T03:38:17.645Z,3.30
2019-05-22T03:40:47.880Z,2.83
2019-05-22T03:43:23.610Z,3.20
2019-05-22T03:45:54.236Z,2.90
2019-05-22T03:48:24.940Z,3.63
2019-05-22T03:50:58.000Z,3.53
2019-05-22T03:53:27.112Z,3.20
2019-05-22T03:55:57.252Z,3.20
2019-05-22T03:58:26.802Z,3.03
2019-05-22T04:00:58.703Z,3.40
2019-05-22T04:03:27.555Z,3.60
2019-05-22T04:05:56.694Z,3.03
2019-05-22T04:08:27.605Z,3.37
2019-05-22T04:11:01.055Z,3.20
2019-05-22T04:13:30.913Z,3.20
2019-05-22T04:16:01.525Z,2.90
2019-05-22T04:18:32.781Z,3.00
2019-05-22T04:21:03.251Z,3.10
2019-05-22T04:23:32.351Z,2.70
2019-05-22T04:26:03.791Z,2.87
2019-05-22T04:28:33.376Z,2.97
2019-05-22T04:31:02.526Z,2.83
2019-05-22T04:33:32.417Z,2.43
2019-05-22T04:36:02.984Z,2.80
2019-05-22T04:38:32.627Z,3.37
2019-05-22T04:41:03.098Z,2.80
2019-05-22T04:43:34.707Z,2.87
2019-05-22T04:46:08.206Z,2.97
2019-05-22T04:48:37.906Z,3.10
2019-05-22T04:51:26.954Z,2.97
2019-05-22T04:53:56.795Z,2.97
2019-05-22T04:56:27.478Z,2.93
2019-05-22T04:58:58.188Z,2.67
2019-05-22T05:01:27.499Z,3.20
2019-05-22T05:03:57.441Z,2.63
2019-05-22T05:06:26.955Z,2.70
2019-05-22T05:08:57.268Z,2.73
2019-05-22T05:11:26.313Z,2.50
2019-05-22T05:13:55.659Z,2.70
2019-05-22T05:16:24.551Z,2.17
2019-05-22T05:18:53.603Z,2.30
2019-05-22T05:21:22.789Z,2.67
2019-05-22T05:23:52.203Z,3.20
2019-05-22T05:26:22.524Z,3.07
2019-05-22T05:28:52.415Z,3.50
2019-05-22T05:31:22.129Z,3.00
2019-05-22T05:34:03.893Z,3.20
2019-05-22T05:36:34.245Z,2.23
2019-05-22T05:39:07.050Z,2.70
2019-05-22T05:41:36.792Z,1.93
2019-05-22T05:44:06.492Z,2.60
2019-05-22T05:46:35.390Z,2.20
2019-05-22T05:49:05.106Z,2.20
2019-05-22T05:51:45.191Z,2.30
2019-05-22T05:54:15.153Z,2.33
2019-05-22T05:56:51.270Z,2.50
2019-05-22T05:59:24.075Z,2.67
2019-05-22T06:01:54.921Z,2.50
2019-05-22T06:04:35.159Z,2.67
2019-05-22T06:07:22.623Z,1.97
2019-05-22T06:10:23.820Z,1.90
2019-05-22T06:12:53.127Z,2.20
2019-05-22T06:15:25.307Z,2.20
2019-05-22T06:18:32.605Z,2.30
2019-05-22T06:21:04.138Z,2.23
2019-05-22T06:24:14.105Z,2.20
2019-05-22T06:27:23.117Z,2.40
2019-05-22T06:29:57.120Z,2.53
2019-05-22T06:33:03.718Z,2.50
2019-05-22T06:35:36.137Z,2.47
2019-05-22T06:38:40.041Z,2.60
2019-05-22T06:41:09.752Z,2.57
2019-05-22T06:44:41.300Z,2.30
2019-05-22T06:47:13.037Z,2.60
2019-05-22T06:49:47.592Z,2.60
2019-05-22T06:52:16.985Z,2.40
2019-05-22T06:54:46.245Z,2.20
2019-05-22T06:57:40.582Z,2.70
2019-05-22T07:00:15.412Z,2.53
2019-05-22T07:02:45.372Z,2.60
2019-05-22T07:05:14.571Z,2.60
2019-05-22T07:07:43.451Z,2.60
2019-05-22T07:10:13.386Z,2.60
2019-05-22T07:12:43.679Z,2.80
2019-05-22T07:15:51.958Z,3.00
2019-05-22T07:18:23.919Z,3.20
2019-05-22T07:20:54.618Z,3.10
2019-05-22T07:23:26.593Z,3.00
2019-05-22T07:25:58.590Z,2.80
2019-05-22T07:28:29.045Z,2.83
2019-05-22T07:30:58.149Z,3.07
2019-05-22T07:33:27.173Z,2.97
2019-05-22T07:36:09.193Z,2.97
2019-05-22T07:38:27.921Z,2.93
2019-05-22T07:40:57.189Z,2.80
2019-05-22T07:43:26.515Z,2.87
2019-05-22T07:45:57.356Z,2.80
2019-05-22T07:48:28.826Z,2.90
2019-05-22T07:50:58.072Z,2.97
2019-05-22T07:53:28.445Z,2.80
2019-05-22T07:55:59.661Z,2.90
2019-05-22T07:58:30.987Z,2.77
2019-05-22T08:01:02.117Z,2.70
2019-05-22T08:03:32.643Z,2.50
2019-05-22T08:06:02.959Z,3.30
2019-05-22T08:08:34.986Z,3.13
2019-05-22T08:11:05.583Z,2.87
2019-05-22T08:13:35.404Z,3.63
2019-05-22T08:16:04.995Z,3.10
2019-05-22T08:18:38.821Z,2.83
2019-05-22T08:21:08.156Z,2.77
2019-05-22T08:23:37.586Z,2.97
2019-05-22T08:26:08.024Z,2.93
2019-05-22T08:28:37.666Z,3.30
2019-05-22T08:31:08.982Z,3.40
2019-05-22T08:33:39.063Z,3.40
2019-05-22T08:36:09.083Z,3.23
2019-05-22T08:38:39.457Z,3.33
2019-05-22T08:41:09.774Z,3.47
2019-05-22T08:44:03.418Z,3.60
2019-05-22T08:46:12.429Z,3.60
2019-05-22T08:48:48.182Z,3.60
2019-05-22T08:51:14.617Z,3.77
2019-05-22T08:53:48.178Z,3.33
2019-05-22T08:56:15.310Z,3.50
2019-05-22T08:58:44.839Z,4.07
2019-05-22T09:01:15.632Z,3.70
2019-05-22T09:03:46.484Z,3.60
2019-05-22T09:06:15.780Z,3.57
2019-05-22T09:08:44.642Z,3.93
2019-05-22T09:11:13.610Z,3.50
2019-05-22T09:13:42.832Z,3.97
2019-05-22T09:16:14.665Z,3.67
2019-05-22T09:18:43.754Z,4.20
2019-05-22T09:21:13.393Z,4.03
2019-05-22T09:23:42.721Z,3.83
2019-05-22T09:26:12.658Z,3.90
2019-05-22T09:28:41.618Z,3.60
2019-05-22T09:31:10.604Z,3.80
2019-05-22T09:33:40.144Z,4.00
2019-05-22T09:36:09.634Z,3.63
2019-05-22T09:38:38.611Z,3.70
2019-05-22T09:41:08.112Z,3.80
2019-05-22T09:43:37.238Z,4.03
2019-05-22T09:46:06.665Z,4.00
2019-05-22T09:48:36.179Z,3.50
2019-05-22T09:51:05.371Z,3.10
2019-05-22T09:53:35.279Z,3.30
2019-05-22T09:56:05.614Z,3.13
2019-05-22T09:58:34.539Z,3.30
2019-05-22T10:01:05.295Z,3.40
2019-05-22T10:03:34.853Z,4.13
2019-05-22T10:06:05.504Z,4.00
2019-05-22T10:08:34.714Z,4.60
2019-05-22T10:11:03.643Z,4.50
2019-05-22T10:13:32.809Z,4.70
2019-05-22T10:16:02.489Z,5.40
2019-05-22T10:18:32.011Z,5.80
2019-05-22T10:21:01.216Z,5.30
2019-05-22T10:23:31.820Z,5.63
2019-05-22T10:26:02.338Z,5.70
2019-05-22T10:28:32.066Z,6.27
2019-05-22T10:31:01.536Z,6.60
2019-05-22T10:33:31.304Z,6.50
2019-05-22T10:36:00.368Z,5.80
2019-05-22T10:38:29.697Z,6.30
2019-05-22T10:40:59.492Z,6.50
2019-05-22T10:43:29.452Z,6.23
2019-05-22T10:45:59.171Z,6.77
2019-05-22T10:48:28.322Z,6.60
2019-05-22T10:50:57.101Z,6.90
2019-05-22T10:53:33.453Z,6.37
2019-05-22T10:55:57.266Z,5.87
2019-05-22T10:58:26.410Z,6.57
2019-05-22T11:00:55.503Z,5.93
2019-05-22T11:03:24.534Z,6.00
2019-05-22T11:06:06.516Z,6.27
2019-05-22T11:08:24.579Z,6.57
2019-05-22T11:10:53.863Z,6.30
2019-05-22T11:13:22.986Z,6.07
2019-05-22T11:15:52.193Z,5.80
2019-05-22T11:18:21.466Z,5.50
2019-05-22T11:20:50.389Z,6.40
2019-05-22T11:23:19.284Z,6.20
2019-05-22T11:25:48.134Z,5.53
2019-05-22T11:28:17.150Z,5.97
2019-05-22T11:30:46.194Z,5.97
2019-05-22T11:33:15.525Z,5.40
2019-05-22T11:35:45.501Z,5.50
2019-05-22T11:38:14.741Z,4.73
2019-05-22T11:40:48.586Z,5.63
2019-05-22T11:43:17.520Z,5.33
2019-05-22T11:45:46.928Z,5.13
2019-05-22T11:48:16.132Z,5.17
2019-05-22T11:50:45.566Z,5.20
2019-05-22T11:53:14.827Z,5.20
2019-05-22T11:55:46.135Z,5.60
2019-05-22T11:58:15.551Z,5.23
2019-05-22T12:00:44.387Z,5.37
2019-05-22T12:03:14.267Z,5.33
2019-05-22T12:05:43.607Z,5.30
2019-05-22T12:08:13.292Z,5.37
2019-05-22T12:10:42.432Z,5.17
2019-05-22T12:13:12.385Z,4.90
2019-05-22T12:15:42.448Z,5.30
2019-05-22T12:18:12.319Z,5.03
2019-05-22T12:20:41.177Z,5.37
2019-05-22T12:23:09.990Z,5.00
2019-05-22T12:25:39.217Z,5.20
2019-05-22T12:28:08.345Z,5.17
2019-05-22T12:30:37.990Z,5.15
2019-05-22T12:33:13.923Z,5.23
2019-05-22T12:35:41.068Z,6.50
2019-05-22T12:38:10.586Z,6.93
2019-05-22T12:40:40.100Z,7.43
2019-05-22T12:43:09.202Z,8.47
2019-05-22T12:45:38.578Z,9.03
2019-05-22T12:48:07.408Z,8.80
2019-05-22T12:50:36.666Z,10.10
2019-05-22T12:53:07.814Z,9.30
2019-05-22T12:55:37.012Z,11.50
2019-05-22T12:58:06.895Z,11.73
2019-05-22T13:00:37.107Z,13.60
2019-05-22T13:03:07.713Z,15.13
2019-05-22T13:05:37.635Z,14.10
2019-05-22T13:08:08.716Z,15.80
2019-05-22T13:10:38.054Z,15.40
2019-05-22T13:13:07.220Z,14.53
2019-05-22T13:15:38.724Z,15.83
2019-05-22T13:18:10.868Z,14.53
2019-05-22T13:20:44.902Z,14.67
2019-05-22T13:23:15.456Z,15.90
2019-05-22T13:25:45.912Z,16.27
2019-05-22T13:28:18.211Z,17.33
2019-05-22T13:30:51.141Z,17.23
2019-05-22T13:33:24.156Z,16.63
2019-05-22T13:35:54.016Z,16.27
2019-05-22T13:38:23.583Z,16.87
2019-05-22T13:40:52.789Z,16.07
2019-05-22T13:43:22.417Z,17.67
2019-05-22T13:45:51.448Z,19.00
2019-05-22T13:48:21.320Z,17.17
2019-05-22T13:50:50.557Z,18.93
2019-05-22T13:53:20.769Z,20.53
2019-05-22T13:55:50.526Z,20.07
2019-05-22T13:58:22.493Z,19.90
2019-05-22T14:00:53.600Z,20.90
2019-05-22T14:03:24.436Z,20.60
2019-05-22T14:05:54.666Z,20.70
2019-05-22T14:08:24.532Z,20.27
2019-05-22T14:10:54.607Z,21.23
2019-05-22T14:13:25.508Z,21.33
2019-05-22T14:15:56.970Z,22.23
2019-05-22T14:18:25.451Z,22.00
2019-05-22T14:20:54.578Z,21.00
2019-05-22T14:23:24.406Z,20.67
2019-05-22T14:25:53.934Z,20.80
2019-05-22T14:28:23.882Z,19.50
2019-05-22T14:30:54.896Z,20.47
2019-05-22T14:33:28.024Z,19.53
2019-05-22T14:35:57.097Z,20.53
2019-05-22T14:38:28.338Z,22.80
2019-05-22T14:41:01.434Z,23.07
2019-05-22T14:43:30.684Z,22.77
2019-05-22T14:46:00.431Z,22.50
2019-05-22T14:48:30.441Z,21.87
2019-05-22T14:51:01.059Z,21.33
2019-05-22T14:53:31.010Z,20.87
2019-05-22T14:56:01.273Z,20.23
2019-05-22T14:58:30.361Z,20.37
2019-05-22T15:00:59.480Z,19.60
2019-05-22T15:03:28.645Z,17.67
2019-05-22T15:05:57.728Z,18.53
2019-05-22T15:08:26.675Z,16.53
2019-05-22T15:10:58.109Z,18.50
2019-05-22T15:13:27.863Z,18.20
2019-05-22T15:15:56.971Z,17.50
2019-05-22T15:18:26.120Z,17.90
2019-05-22T15:21:04.588Z,16.23
2019-05-22T15:23:35.769Z,16.60
2019-05-22T15:26:05.477Z,16.67
2019-05-22T15:28:35.505Z,18.10
2019-05-22T15:31:07.558Z,15.97
2019-05-22T15:33:36.751Z,16.57
2019-05-22T15:36:07.999Z,15.90
2019-05-22T15:38:40.897Z,15.03
2019-05-22T15:41:10.912Z,13.83
2019-05-22T15:43:43.825Z,14.17
2019-05-22T15:46:18.588Z,15.17
2019-05-22T15:48:48.644Z,10.90
2019-05-22T15:51:22.749Z,10.03
2019-05-22T15:54:03.904Z,10.37
2019-05-22T15:56:31.753Z,9.47
2019-05-22T15:59:05.448Z,9.50
2019-05-22T16:01:37.083Z,9.03
2019-05-22T16:04:10.877Z,8.40
2019-05-22T16:06:43.736Z,5.03
2019-05-22T16:09:15.328Z,4.50
2019-05-22T16:11:46.905Z,4.50
2019-05-22T16:14:16.055Z,5.40
2019-05-22T16:16:49.257Z,4.83
2019-05-22T16:19:21.219Z,5.27
2019-05-22T16:21:54.128Z,4.77
2019-05-22T16:24:23.610Z,5.70
2019-05-22T16:26:53.279Z,5.70
2019-05-22T16:29:23.802Z,5.13
2019-05-22T16:31:54.258Z,5.30
2019-05-22T16:34:23.754Z,5.40
2019-05-22T16:36:52.911Z,4.87
2019-05-22T16:39:23.844Z,5.37
2019-05-22T16:41:57.079Z,4.37
2019-05-22T16:44:27.114Z,5.17
2019-05-22T16:46:57.969Z,5.60
2019-05-22T16:49:29.614Z,5.17
2019-05-22T16:52:02.940Z,5.70
2019-05-22T16:54:32.734Z,5.97
2019-05-22T16:57:02.677Z,6.07
2019-05-22T16:59:36.578Z,5.50
2019-05-22T17:02:04.606Z,4.40
2019-05-22T17:04:33.521Z,4.80
2019-05-22T17:07:04.836Z,5.23
2019-05-22T17:09:34.326Z,5.20
2019-05-22T17:12:06.518Z,4.57
2019-05-22T17:14:37.282Z,4.30
2019-05-22T17:17:07.383Z,4.70
2019-05-22T17:19:36.222Z,5.57
2019-05-22T17:22:07.752Z,5.30
2019-05-22T17:24:37.730Z,4.63
2019-05-22T17:27:08.017Z,5.10
2019-05-22T17:29:37.279Z,5.03
2019-05-22T17:32:08.031Z,4.83
2019-05-22T17:34:39.200Z,4.70
2019-05-22T17:37:14.835Z,4.93
2019-05-22T17:39:48.825Z,4.33
2019-05-22T17:42:21.278Z,4.50
2019-05-22T17:44:52.848Z,4.50
2019-05-22T17:47:26.133Z,4.40
2019-05-22T17:49:56.034Z,5.03
2019-05-22T17:52:27.527Z,4.73
2019-05-22T17:54:57.468Z,4.07
2019-05-22T17:57:29.218Z,4.47
2019-05-22T17:59:59.031Z,4.00
2019-05-22T18:02:34.921Z,4.37
2019-05-22T18:05:06.878Z,4.03
2019-05-22T18:07:37.161Z,3.90
2019-05-22T18:10:07.293Z,5.40
2019-05-22T18:12:36.787Z,4.97
2019-05-22T18:15:08.108Z,5.20
2019-05-22T18:17:39.403Z,5.27
2019-05-22T18:20:09.873Z,4.70
2019-05-22T18:22:39.941Z,4.70
2019-05-22T18:25:10.194Z,4.40
2019-05-22T18:27:39.693Z,4.33
2019-05-22T18:30:09.838Z,4.20
2019-05-22T18:32:41.747Z,3.93
2019-05-22T18:35:14.476Z,3.87
2019-05-22T18:37:43.594Z,3.53
2019-05-22T18:40:14.039Z,3.90
2019-05-22T18:42:43.207Z,3.57
2019-05-22T18:45:14.353Z,3.20
2019-05-22T18:47:44.750Z,3.90
2019-05-22T18:50:15.853Z,4.40
2019-05-22T18:52:48.029Z,3.60
2019-05-22T18:55:17.611Z,3.60
2019-05-22T18:57:47.105Z,3.60
2019-05-22T19:00:19.438Z,3.53
2019-05-22T19:02:48.494Z,3.40
2019-05-22T19:05:21.216Z,4.00
2019-05-22T19:07:50.991Z,4.10
2019-05-22T19:10:20.789Z,4.50
2019-05-22T19:12:49.836Z,3.50
2019-05-22T19:15:20.075Z,3.47
2019-05-22T19:17:51.126Z,3.33
2019-05-22T19:20:21.743Z,4.13
2019-05-22T19:23:00.451Z,4.13
2019-05-22T19:25:21.682Z,3.70
2019-05-22T19:27:51.660Z,3.80
2019-05-22T19:30:21.746Z,4.30
2019-05-22T19:32:50.794Z,3.87
2019-05-22T19:35:20.495Z,3.70
2019-05-22T19:37:50.062Z,3.33
2019-05-22T19:40:19.851Z,3.43
2019-05-22T19:42:49.433Z,3.83
2019-05-22T19:45:20.647Z,3.30
2019-05-22T19:47:54.349Z,3.53
2019-05-22T19:50:25.181Z,3.62
2019-05-22T19:52:56.668Z,3.50
2019-05-22T19:55:27.516Z,3.00
2019-05-22T19:57:57.047Z,3.13
2019-05-22T20:00:26.320Z,3.20
2019-05-22T20:02:55.406Z,2.90
2019-05-22T20:05:25.462Z,3.53
2019-05-22T20:07:55.673Z,3.70
2019-05-22T20:10:25.232Z,3.27
2019-05-22T20:12:55.735Z,3.00
2019-05-22T20:15:24.844Z,3.17
2019-05-22T20:17:54.197Z,3.33
2019-05-22T20:20:24.218Z,3.70
2019-05-22T20:22:53.586Z,3.43
2019-05-22T20:25:22.931Z,3.20
2019-05-22T20:27:53.032Z,3.67
2019-05-22T20:30:24.557Z,3.13
2019-05-22T20:32:53.540Z,2.90
2019-05-22T20:35:22.399Z,3.90
2019-05-22T20:37:51.627Z,3.50
2019-05-22T20:40:22.026Z,3.57
2019-05-22T20:42:51.015Z,3.37
2019-05-22T20:45:24.791Z,3.20
2019-05-22T20:48:19.381Z,3.43
2019-05-22T20:50:48.918Z,3.40
2019-05-22T20:53:19.023Z,3.60
2019-05-22T20:55:49.879Z,3.70
2019-05-22T20:58:21.158Z,4.67
2019-05-22T21:00:51.387Z,3.40
2019-05-22T21:03:22.226Z,3.40
2019-05-22T21:05:52.724Z,3.70
2019-05-22T21:08:24.270Z,3.63
2019-05-22T21:10:56.413Z,3.63
2019-05-22T21:13:26.056Z,3.20
2019-05-22T21:15:56.397Z,3.80
2019-05-22T21:18:31.239Z,3.80
2019-05-22T21:21:00.708Z,3.53
2019-05-22T21:23:31.064Z,3.27
2019-05-22T21:26:00.352Z,3.70
2019-05-22T21:28:29.271Z,3.57
2019-05-22T21:30:59.003Z,3.60
2019-05-22T21:33:28.216Z,3.47
2019-05-22T21:35:58.141Z,3.87
2019-05-22T21:38:27.807Z,3.97
2019-05-22T21:40:57.760Z,4.47
2019-05-22T21:43:26.943Z,4.40
2019-05-22T21:45:56.369Z,4.10
2019-05-22T21:48:26.079Z,4.07
2019-05-22T21:50:54.918Z,4.23
2019-05-22T21:53:24.695Z,4.43
2019-05-22T21:56:04.349Z,4.10
2019-05-22T21:58:25.327Z,4.50
2019-05-22T22:01:20.019Z,4.53
2019-05-22T22:03:54.649Z,4.80
2019-05-22T22:06:24.429Z,4.73
2019-05-22T22:08:53.472Z,4.47
2019-05-22T22:11:25.859Z,4.63
2019-05-22T22:13:55.969Z,5.13
2019-05-22T22:16:25.043Z,5.30
2019-05-22T22:18:54.903Z,5.50
2019-05-22T22:21:23.854Z,4.87
2019-05-22T22:23:53.583Z,5.17
2019-05-22T22:26:25.791Z,5.07
2019-05-22T22:28:53.607Z,5.53
2019-05-22T22:31:25.220Z,5.57
2019-05-22T22:33:58.980Z,5.47
2019-05-22T22:36:28.291Z,4.73
2019-05-22T22:39:00.258Z,4.53
2019-05-22T22:41:29.683Z,4.73
2019-05-22T22:43:59.188Z,5.37
2019-05-22T22:46:41.478Z,5.50
2019-05-22T22:49:14.559Z,5.00
2019-05-22T22:51:43.396Z,5.10
2019-05-22T22:54:13.302Z,4.37
2019-05-22T22:56:43.814Z,5.13
2019-05-22T22:59:12.893Z,5.13
2019-05-22T23:01:45.194Z,5.03
2019-05-22T23:04:14.940Z,5.73
2019-05-22T23:06:45.130Z,5.20
2019-05-22T23:09:15.166Z,5.60
2019-05-22T23:11:45.729Z,5.30
2019-05-22T23:14:15.442Z,5.93
2019-05-22T23:16:45.117Z,5.87
2019-05-22T23:19:33.692Z,6.47
2019-05-22T23:22:03.361Z,5.63
2019-05-22T23:24:32.889Z,6.00
2019-05-22T23:27:02.556Z,5.43
2019-05-22T23:29:32.680Z,6.17
2019-05-22T23:32:02.354Z,5.40
2019-05-22T23:34:32.091Z,5.70
2019-05-22T23:37:01.404Z,6.10
2019-05-22T23:39:32.338Z,6.10
2019-05-22T23:42:05.275Z,5.67
2019-05-22T23:44:36.588Z,7.43
2019-05-22T23:47:07.585Z,7.67
2019-05-22T23:49:38.095Z,6.17
2019-05-22T23:52:07.682Z,6.30
2019-05-22T23:54:37.051Z,6.67
2019-05-22T23:57:06.308Z,6.60
2019-05-22T23:59:36.763Z,7.30
